FYLZ/LUD METAR and TAF weather

Enter ICAO airport designator
Station Type Date Time Source
FYLZ METAR 2021/03/05 01:00 UTC NOAA

FYLZ 050100Z AUTO 00000KT //// // ////// 18/13 Q1009


Station Type Date Time Source
FYLZ Decoded METAR 2021/03/05 01:00 UTC NOAA

Luderitz / Diaz Point, Namibia (FYLZ) 26-41S 015-15E
Mar 04, 2021 - 08:00 PM EST / 2021.03.05 0100 UTC
Wind: Calm:0
Temperature: 64 F (18 C)
Dew Point: 55 F (13 C)
Relative Humidity: 72%
Pressure (altimeter): 29.80 in. Hg (1009 hPa)
ob: FYLZ 050100Z AUTO 00000KT //// // ////// 18/13 Q1009
cycle: 1

Station Type Date Time Source
FYLZ TAF 2014/11/15 15:19 UTC NOAA

TAF FYLZ 151400Z 1515/1524 18015G28KT CAVOK
BECMG 1518/1520 16020KT

Example: see airport list